createdAt,value
2017-11-21T00:01:46.600Z,93.35
2017-11-21T00:07:50.106Z,93.38
2017-11-21T00:13:54.383Z,93.30
2017-11-21T00:19:57.952Z,93.11
2017-11-21T00:26:01.476Z,93.51
2017-11-21T00:32:05.006Z,93.37
2017-11-21T00:38:08.540Z,93.37
2017-11-21T00:44:12.048Z,94.00
2017-11-21T00:50:15.541Z,93.82
2017-11-21T00:56:19.049Z,93.79
2017-11-21T01:02:23.320Z,93.63
2017-11-21T01:08:26.824Z,93.97
2017-11-21T01:14:30.297Z,93.65
2017-11-21T01:20:33.824Z,93.52
2017-11-21T01:26:38.080Z,93.50
2017-11-21T01:32:41.588Z,93.50
2017-11-21T01:38:45.099Z,93.72
2017-11-21T01:44:49.372Z,93.27
2017-11-21T01:50:52.863Z,92.73
2017-11-21T01:56:56.362Z,93.07
2017-11-21T02:03:05.815Z,93.80
2017-11-21T02:09:10.078Z,93.75
2017-11-21T02:15:13.596Z,93.78
2017-11-21T02:21:17.168Z,93.60
2017-11-21T02:27:20.664Z,93.69
2017-11-21T02:33:24.175Z,93.71
2017-11-21T02:39:27.711Z,93.45
2017-11-21T02:45:31.233Z,93.90
2017-11-21T02:51:34.732Z,93.71
2017-11-21T03:04:12.958Z,94.21
2017-11-21T03:10:16.480Z,94.36
2017-11-21T03:16:20.001Z,94.46
2017-11-21T03:22:41.277Z,94.41
2017-11-21T03:28:44.776Z,94.65
2017-11-21T03:34:48.266Z,94.91
2017-11-21T03:40:52.580Z,94.79
2017-11-21T03:46:56.854Z,94.67
2017-11-21T03:53:00.361Z,94.76
2017-11-21T03:59:03.873Z,94.97
2017-11-21T04:05:08.155Z,95.00
2017-11-21T04:11:11.640Z,94.93
2017-11-21T04:17:15.243Z,95.01
2017-11-21T04:23:18.733Z,94.92
2017-11-21T04:29:22.241Z,94.94
2017-11-21T04:35:25.734Z,94.93
2017-11-21T04:41:30.005Z,94.93
2017-11-21T04:47:34.308Z,94.88
2017-11-21T04:53:37.813Z,95.02
2017-11-21T04:59:41.316Z,94.95
2017-11-21T05:05:44.798Z,94.93
2017-11-21T05:11:48.356Z,94.94
2017-11-21T05:17:51.914Z,94.89
2017-11-21T05:23:55.422Z,95.03
2017-11-21T05:29:59.015Z,95.19
2017-11-21T05:36:02.522Z,95.29
2017-11-21T05:42:06.027Z,95.19
2017-11-21T05:48:10.309Z,95.12
2017-11-21T05:54:13.877Z,95.19
2017-11-21T06:00:17.376Z,95.26
2017-11-21T06:06:20.922Z,95.13
2017-11-21T06:12:24.429Z,95.12
2017-11-21T06:18:27.940Z,95.09
2017-11-21T06:24:31.458Z,95.10
2017-11-21T06:30:35.732Z,95.14
2017-11-21T06:36:39.236Z,95.34
2017-11-21T06:42:42.766Z,95.28
2017-11-21T06:48:46.249Z,95.21
2017-11-21T06:54:49.800Z,95.06
2017-11-21T07:00:53.304Z,94.97
2017-11-21T07:06:57.591Z,94.87
2017-11-21T07:13:01.148Z,94.83
2017-11-21T07:19:04.640Z,94.72
2017-11-21T07:25:08.143Z,94.67
2017-11-21T07:31:11.649Z,94.66
2017-11-21T07:37:15.935Z,94.73
2017-11-21T07:43:19.434Z,94.72
2017-11-21T07:49:23.700Z,94.69
2017-11-21T07:55:27.213Z,94.65
2017-11-21T08:01:30.730Z,94.54
2017-11-21T08:07:34.992Z,94.39
2017-11-21T08:13:38.474Z,94.19
2017-11-21T08:19:41.971Z,94.13
2017-11-21T08:25:45.525Z,94.10
2017-11-21T08:31:49.018Z,94.19
2017-11-21T08:37:52.508Z,94.16
2017-11-21T08:43:56.022Z,93.96
2017-11-21T08:49:59.530Z,93.69
2017-11-21T08:56:03.054Z,93.60
2017-11-21T09:02:06.554Z,93.41
2017-11-21T09:08:10.044Z,93.30
2017-11-21T09:14:13.549Z,93.41
2017-11-21T09:20:17.821Z,93.53
2017-11-21T09:26:21.329Z,93.48
2017-11-21T09:32:24.804Z,93.53
2017-11-21T09:38:28.424Z,93.49
2017-11-21T09:44:32.036Z,93.40
2017-11-21T09:50:35.525Z,93.54
2017-11-21T09:56:39.020Z,93.78
2017-11-21T10:02:42.526Z,93.98
2017-11-21T10:08:46.034Z,93.99
2017-11-21T10:14:50.294Z,94.00
2017-11-21T10:20:53.809Z,94.05
2017-11-21T10:26:57.295Z,93.96
2017-11-21T10:33:01.154Z,93.95
2017-11-21T10:39:04.990Z,93.76
2017-11-21T10:45:09.483Z,93.43
2017-11-21T10:51:14.678Z,93.39
2017-11-21T10:57:18.663Z,93.44
2017-11-21T11:03:37.447Z,93.35
2017-11-21T11:09:41.226Z,93.26
2017-11-21T11:15:45.563Z,93.32
2017-11-21T11:21:50.930Z,93.50
2017-11-21T11:27:54.940Z,93.59
2017-11-21T11:34:01.323Z,93.52
2017-11-21T11:40:06.736Z,93.48
2017-11-21T11:46:11.438Z,93.19
2017-11-21T11:52:15.540Z,92.77
2017-11-21T11:58:19.643Z,92.15
2017-11-21T12:04:23.415Z,91.92
2017-11-21T12:10:28.197Z,91.99
2017-11-21T12:16:32.430Z,92.31
2017-11-21T12:22:36.115Z,92.34
2017-11-21T12:28:41.088Z,92.34
2017-11-21T12:34:46.640Z,92.27
2017-11-21T12:40:51.898Z,92.20
2017-11-21T12:46:56.627Z,92.26
2017-11-21T12:53:02.025Z,92.44
2017-11-21T12:59:06.691Z,92.54
2017-11-21T13:05:11.059Z,92.64
2017-11-21T13:11:15.610Z,92.70
2017-11-21T13:17:20.665Z,92.84
2017-11-21T13:23:26.053Z,92.87
2017-11-21T13:29:31.139Z,92.79
2017-11-21T13:48:35.054Z,93.57
2017-11-21T13:54:40.697Z,93.78
2017-11-21T14:00:45.191Z,93.89
2017-11-21T14:06:49.340Z,94.01
2017-11-21T14:12:53.590Z,93.97
2017-11-21T14:18:57.375Z,93.77
2017-11-21T14:25:02.647Z,93.74
2017-11-21T14:31:08.298Z,93.83
2017-11-21T14:37:13.051Z,93.67
2017-11-21T14:43:16.802Z,93.62
2017-11-21T14:49:21.260Z,93.82
2017-11-21T14:55:27.014Z,93.89
2017-11-21T15:01:32.841Z,94.05
2017-11-21T15:07:37.611Z,93.91
2017-11-21T15:13:41.287Z,93.78
2017-11-21T15:19:45.789Z,94.08
2017-11-21T15:25:52.412Z,94.06
2017-11-21T15:31:57.016Z,94.02
2017-11-21T15:38:03.227Z,94.08
2017-11-21T15:44:07.932Z,94.05
2017-11-21T15:50:13.815Z,94.13
2017-11-21T15:56:21.459Z,94.33
2017-11-21T16:02:29.218Z,94.22
2017-11-21T16:08:33.748Z,94.45
2017-11-21T16:14:37.982Z,94.35
2017-11-21T16:20:42.331Z,94.69
2017-11-21T16:26:47.991Z,94.59
2017-11-21T16:32:51.749Z,94.51
2017-11-21T16:38:55.848Z,94.63
2017-11-21T16:45:01.538Z,94.78
2017-11-21T16:51:08.097Z,94.82
2017-11-21T16:57:11.838Z,94.82
2017-11-21T17:03:15.471Z,94.94
2017-11-21T17:09:19.521Z,95.02
2017-11-21T17:15:23.956Z,95.06
2017-11-21T17:21:29.363Z,95.27
2017-11-21T17:27:33.335Z,95.41
2017-11-21T17:33:37.869Z,95.36
2017-11-21T17:39:42.989Z,95.28
2017-11-21T17:45:47.378Z,95.24
2017-11-21T17:51:51.776Z,95.14
2017-11-21T17:57:55.398Z,95.01
2017-11-21T18:04:02.148Z,95.08
2017-11-21T18:10:06.466Z,95.09
2017-11-21T18:16:11.507Z,95.13
2017-11-21T18:22:15.145Z,94.97
2017-11-21T18:28:19.756Z,94.87
2017-11-21T18:34:23.669Z,94.67
2017-11-21T18:40:28.292Z,93.82
2017-11-21T18:46:32.234Z,93.64
2017-11-21T18:52:36.902Z,93.35
2017-11-21T18:58:40.919Z,93.41
2017-11-21T19:04:44.748Z,93.37
2017-11-21T19:10:48.455Z,93.48
2017-11-21T19:16:53.629Z,93.44
2017-11-21T19:22:58.248Z,93.28
2017-11-21T19:29:02.651Z,93.31
2017-11-21T19:35:06.708Z,92.86
2017-11-21T19:41:12.894Z,92.93
2017-11-21T19:47:16.623Z,92.90
2017-11-21T19:53:20.705Z,92.99
2017-11-21T19:59:24.352Z,93.26
2017-11-21T20:05:28.532Z,93.37
2017-11-21T20:11:34.211Z,93.45
2017-11-21T20:33:53.458Z,93.98
2017-11-21T20:39:58.475Z,93.70
2017-11-21T20:46:02.473Z,93.28
2017-11-21T20:52:06.525Z,93.00
2017-11-21T20:58:11.231Z,93.24
2017-11-21T21:04:15.717Z,93.64
2017-11-21T21:10:19.809Z,93.74
2017-11-21T21:29:25.803Z,94.56
2017-11-21T21:35:30.798Z,94.53
2017-11-21T21:41:35.875Z,94.47
2017-11-21T21:47:40.412Z,94.53
2017-11-21T21:53:44.975Z,94.36
2017-11-21T21:59:48.570Z,94.12
2017-11-21T22:05:55.731Z,94.20
2017-11-21T22:12:01.142Z,93.90
2017-11-21T22:18:06.219Z,93.67
2017-11-21T22:37:11.098Z,93.87
2017-11-21T22:43:16.504Z,93.44
2017-11-21T22:49:21.568Z,93.56
2017-11-21T22:55:26.235Z,93.13
2017-11-21T23:01:34.332Z,92.52
2017-11-21T23:07:40.746Z,92.41
2017-11-21T23:26:44.486Z,91.74
2017-11-21T23:32:48.332Z,91.34
2017-11-21T23:38:54.229Z,91.01
2017-11-21T23:45:00.761Z,90.58
2017-11-21T23:51:07.147Z,90.33
2017-11-21T23:57:12.092Z,90.26
